createdAt,value
2018-03-06T00:02:04.248Z,30.35
2018-03-06T00:04:31.681Z,31.67
2018-03-06T00:06:59.122Z,33.72
2018-03-06T00:09:27.326Z,33.28
2018-03-06T00:11:54.762Z,33.17
2018-03-06T00:14:22.966Z,33.13
2018-03-06T00:16:50.451Z,32.97
2018-03-06T00:19:17.838Z,33.60
2018-03-06T00:21:46.078Z,37.50
2018-03-06T00:24:13.526Z,36.58
2018-03-06T00:26:40.956Z,36.42
2018-03-06T00:29:08.399Z,37.95
2018-03-06T00:31:35.844Z,38.47
2018-03-06T00:34:04.071Z,35.30
2018-03-06T00:36:31.498Z,34.05
2018-03-06T00:38:58.934Z,38.00
2018-03-06T00:41:27.134Z,37.83
2018-03-06T00:43:54.617Z,33.50
2018-03-06T00:46:22.074Z,33.85
2018-03-06T00:48:49.517Z,36.45
2018-03-06T00:51:16.951Z,35.10
2018-03-06T00:53:44.425Z,36.33
2018-03-06T00:56:11.917Z,35.72
2018-03-06T00:58:39.338Z,38.58
2018-03-06T01:01:06.802Z,36.58
2018-03-06T01:03:34.356Z,35.67
2018-03-06T01:06:01.810Z,35.42
2018-03-06T01:08:29.253Z,36.92
2018-03-06T01:10:56.682Z,35.95
2018-03-06T01:13:24.901Z,39.55
2018-03-06T01:15:52.362Z,38.38
2018-03-06T01:18:19.795Z,37.08
2018-03-06T01:20:47.241Z,36.85
2018-03-06T01:23:14.729Z,38.55
2018-03-06T01:25:42.178Z,38.05
2018-03-06T01:28:09.645Z,35.05
2018-03-06T01:30:37.107Z,37.92
2018-03-06T01:33:04.618Z,36.80
2018-03-06T01:35:32.061Z,36.80
2018-03-06T01:37:59.858Z,35.80
2018-03-06T01:40:27.287Z,34.67
2018-03-06T01:42:54.822Z,35.95
2018-03-06T01:45:22.362Z,34.00
2018-03-06T01:47:49.817Z,37.15
2018-03-06T01:50:17.264Z,37.28
2018-03-06T01:52:44.814Z,35.55
2018-03-06T01:55:12.263Z,38.03
2018-03-06T01:57:39.726Z,37.55
2018-03-06T02:00:07.174Z,39.53
2018-03-06T02:02:34.604Z,37.45
2018-03-06T02:05:02.037Z,38.75
2018-03-06T02:10:03.245Z,37.33
2018-03-06T02:12:30.688Z,40.50
2018-03-06T02:14:58.122Z,39.63
2018-03-06T02:17:26.322Z,40.80
2018-03-06T02:19:53.804Z,40.55
2018-03-06T02:22:21.237Z,38.50
2018-03-06T02:24:48.670Z,37.28
2018-03-06T02:27:16.118Z,39.47
2018-03-06T02:29:43.552Z,40.08
2018-03-06T02:32:10.996Z,39.88
2018-03-06T02:34:38.538Z,41.78
2018-03-06T02:37:05.967Z,39.47
2018-03-06T02:39:33.397Z,42.60
2018-03-06T02:42:00.838Z,40.60
2018-03-06T02:44:28.279Z,40.40
2018-03-06T02:46:55.705Z,40.57
2018-03-06T02:49:23.166Z,44.43
2018-03-06T02:51:50.608Z,44.28
2018-03-06T02:54:18.050Z,45.78
2018-03-06T02:56:45.481Z,43.40
2018-03-06T02:59:13.691Z,45.15
2018-03-06T03:01:41.129Z,45.87
2018-03-06T03:04:08.579Z,47.75
2018-03-06T03:06:36.780Z,45.97
2018-03-06T03:09:04.219Z,44.30
2018-03-06T03:11:31.647Z,44.90
2018-03-06T03:13:59.170Z,42.33
2018-03-06T03:16:26.603Z,43.85
2018-03-06T03:18:54.039Z,46.92
2018-03-06T03:21:21.482Z,51.60
2018-03-06T03:23:49.686Z,47.83
2018-03-06T03:26:17.122Z,44.30
2018-03-06T03:28:44.578Z,47.90
2018-03-06T03:31:12.807Z,47.95
2018-03-06T03:33:40.246Z,48.23
2018-03-06T03:36:07.680Z,44.70
2018-03-06T03:38:35.171Z,50.83
2018-03-06T03:41:02.614Z,53.58
2018-03-06T03:43:30.059Z,51.10
2018-03-06T03:45:57.506Z,53.75
2018-03-06T03:48:24.959Z,51.28
2018-03-06T03:50:52.397Z,55.63
2018-03-06T03:53:20.614Z,55.17
2018-03-06T03:55:48.055Z,54.17
2018-03-06T03:58:15.514Z,54.17
2018-03-06T04:00:42.953Z,56.95
2018-03-06T04:03:10.407Z,57.10
2018-03-06T04:05:37.863Z,57.62
2018-03-06T04:08:05.294Z,56.95
2018-03-06T04:10:32.731Z,54.78
2018-03-06T04:13:00.172Z,60.25
2018-03-06T04:15:27.609Z,57.92
2018-03-06T04:17:55.082Z,62.17
2018-03-06T04:20:22.546Z,60.95
2018-03-06T04:22:49.999Z,62.93
2018-03-06T04:25:17.438Z,61.60
2018-03-06T04:27:44.879Z,58.80
2018-03-06T04:30:12.365Z,65.82
2018-03-06T04:32:39.825Z,64.22
2018-03-06T04:35:07.289Z,68.03
2018-03-06T04:37:34.730Z,64.50
2018-03-06T04:40:02.174Z,64.07
2018-03-06T04:42:29.609Z,63.47
2018-03-06T04:44:57.050Z,66.60
2018-03-06T04:47:25.261Z,70.25
2018-03-06T04:49:52.690Z,70.00
2018-03-06T04:52:20.133Z,75.60
2018-03-06T04:54:48.349Z,72.18
2018-03-06T04:57:15.806Z,68.87
2018-03-06T04:59:43.230Z,68.20
2018-03-06T05:02:10.673Z,74.95
2018-03-06T05:04:38.894Z,75.65
2018-03-06T05:07:06.349Z,76.72
2018-03-06T05:09:33.780Z,78.70
2018-03-06T05:12:01.223Z,80.68
2018-03-06T05:14:29.449Z,75.30
2018-03-06T05:16:56.900Z,73.50
2018-03-06T05:19:24.335Z,74.50
2018-03-06T05:21:51.778Z,77.15
2018-03-06T05:24:19.202Z,81.68
2018-03-06T05:26:47.423Z,75.87
2018-03-06T05:29:14.907Z,84.78
2018-03-06T05:31:42.362Z,86.32
2018-03-06T05:34:09.804Z,77.32
2018-03-06T05:36:37.238Z,88.95
2018-03-06T05:39:04.689Z,84.37
2018-03-06T05:41:32.124Z,83.37
2018-03-06T05:44:00.327Z,82.85
2018-03-06T05:46:27.767Z,84.85
2018-03-06T05:48:55.967Z,87.25
2018-03-06T05:51:23.405Z,83.37
2018-03-06T05:53:50.847Z,82.53
2018-03-06T05:56:19.046Z,90.43
2018-03-06T05:58:46.482Z,87.95
2018-03-06T06:01:14.673Z,80.85
2018-03-06T06:03:42.112Z,81.05
2018-03-06T06:06:09.567Z,84.82
2018-03-06T06:08:37.810Z,86.10
2018-03-06T06:11:05.243Z,84.97
2018-03-06T06:13:32.737Z,86.47
2018-03-06T06:16:00.146Z,89.05
2018-03-06T06:18:27.606Z,95.72
2018-03-06T06:20:55.037Z,91.95
2018-03-06T06:23:22.487Z,91.35
2018-03-06T06:25:49.935Z,91.43
2018-03-06T06:28:18.442Z,95.62
2018-03-06T06:30:45.897Z,92.10
2018-03-06T06:33:13.327Z,89.18
2018-03-06T06:35:40.788Z,88.40
2018-03-06T06:38:08.267Z,90.95
2018-03-06T06:40:35.682Z,97.00
2018-03-06T06:43:03.896Z,90.45
2018-03-06T06:45:31.389Z,92.15
2018-03-06T06:47:58.912Z,91.32
2018-03-06T06:50:26.333Z,94.87
2018-03-06T06:52:54.542Z,95.12
2018-03-06T06:55:21.982Z,93.68
2018-03-06T06:57:49.423Z,88.65
2018-03-06T07:00:17.687Z,89.93
2018-03-06T07:02:45.125Z,91.28
2018-03-06T07:05:12.571Z,89.65
2018-03-06T07:07:39.995Z,85.12
2018-03-06T07:10:07.452Z,81.15
2018-03-06T07:12:34.887Z,86.15
2018-03-06T07:15:02.350Z,87.00
2018-03-06T07:17:29.806Z,81.82
2018-03-06T07:19:57.260Z,85.47
2018-03-06T07:22:24.690Z,77.90
2018-03-06T07:24:52.121Z,76.22
2018-03-06T07:27:19.579Z,78.22
2018-03-06T07:29:47.018Z,76.93
2018-03-06T07:32:14.466Z,76.70
2018-03-06T07:34:41.906Z,79.20
2018-03-06T07:37:09.361Z,74.12
2018-03-06T07:39:36.816Z,71.97
2018-03-06T07:42:04.274Z,74.12
2018-03-06T07:44:31.732Z,77.68
2018-03-06T07:46:59.194Z,79.10
2018-03-06T07:49:26.650Z,75.85
2018-03-06T07:51:54.107Z,73.53
2018-03-06T07:54:21.538Z,71.97
2018-03-06T07:56:48.990Z,69.40
2018-03-06T07:59:16.455Z,70.93
2018-03-06T08:01:44.756Z,76.30
2018-03-06T08:04:12.188Z,72.32
2018-03-06T08:06:39.626Z,67.70
2018-03-06T08:09:07.850Z,71.45
2018-03-06T08:11:35.995Z,71.72
2018-03-06T08:14:03.465Z,67.62
2018-03-06T08:16:30.904Z,66.03
2018-03-06T08:18:58.326Z,69.43
2018-03-06T08:21:25.764Z,65.55
2018-03-06T08:23:53.238Z,73.40
2018-03-06T08:26:20.629Z,63.42
2018-03-06T08:28:48.067Z,68.57
2018-03-06T08:31:16.259Z,66.82
2018-03-06T08:33:43.839Z,68.65
2018-03-06T08:36:11.270Z,68.32
2018-03-06T08:38:38.729Z,65.18
2018-03-06T08:41:06.151Z,66.62
2018-03-06T08:43:33.590Z,66.95
2018-03-06T08:46:01.024Z,66.20
2018-03-06T08:48:28.459Z,65.62
2018-03-06T08:50:55.895Z,68.28
2018-03-06T08:53:23.330Z,66.12
2018-03-06T08:55:50.804Z,65.55
2018-03-06T08:58:18.258Z,64.78
2018-03-06T09:00:45.690Z,66.30
2018-03-06T09:03:13.145Z,65.25
2018-03-06T09:05:40.572Z,64.55
2018-03-06T09:08:08.001Z,64.37
2018-03-06T09:10:36.201Z,67.05
2018-03-06T09:13:03.650Z,67.75
2018-03-06T09:15:31.096Z,64.32
2018-03-06T09:17:58.538Z,62.40
2018-03-06T09:20:26.766Z,63.85
2018-03-06T09:22:54.186Z,66.70
2018-03-06T09:25:21.631Z,64.40
2018-03-06T09:27:49.821Z,67.03
2018-03-06T09:30:17.253Z,63.83
2018-03-06T09:32:44.682Z,68.12
2018-03-06T09:35:12.138Z,64.18
2018-03-06T09:37:39.600Z,66.57
2018-03-06T09:40:07.054Z,69.12
2018-03-06T09:42:34.621Z,67.32
2018-03-06T09:45:02.199Z,67.80
2018-03-06T09:47:30.435Z,69.35
2018-03-06T09:49:57.910Z,70.28
2018-03-06T09:52:26.133Z,69.72
2018-03-06T09:54:53.575Z,70.00
2018-03-06T09:57:21.778Z,64.83
2018-03-06T09:59:49.264Z,63.87
2018-03-06T10:02:16.692Z,62.70
2018-03-06T10:04:44.130Z,61.92
2018-03-06T10:07:11.632Z,59.80
2018-03-06T10:09:39.096Z,63.85
2018-03-06T10:12:06.636Z,64.87
2018-03-06T10:14:34.245Z,68.75
2018-03-06T10:17:01.744Z,66.07
2018-03-06T10:19:29.203Z,63.50
2018-03-06T10:21:56.674Z,63.80
2018-03-06T10:24:24.169Z,63.58
2018-03-06T10:26:51.635Z,67.37
2018-03-06T10:29:19.864Z,65.20
2018-03-06T10:31:47.324Z,64.80
2018-03-06T10:34:14.795Z,67.18
2018-03-06T10:36:42.272Z,65.60
2018-03-06T10:39:10.507Z,66.90
2018-03-06T10:41:38.080Z,65.53
2018-03-06T10:44:05.646Z,64.50
2018-03-06T10:46:33.156Z,61.37
2018-03-06T10:49:00.637Z,64.22
2018-03-06T10:51:28.184Z,68.40
2018-03-06T10:53:55.704Z,62.78
2018-03-06T10:56:23.979Z,61.47
2018-03-06T10:58:51.476Z,64.15
2018-03-06T11:01:24.791Z,64.80
2018-03-06T11:03:52.331Z,63.03
2018-03-06T11:06:19.920Z,66.53
2018-03-06T11:08:47.438Z,64.23
2018-03-06T11:11:14.882Z,63.97
2018-03-06T11:13:42.354Z,61.20
2018-03-06T11:16:09.849Z,60.85
2018-03-06T11:18:37.277Z,61.13
2018-03-06T11:21:04.739Z,62.42
2018-03-06T11:23:32.197Z,65.45
2018-03-06T11:25:59.656Z,61.55
2018-03-06T11:28:27.078Z,58.50
2018-03-06T11:30:54.527Z,61.42
2018-03-06T11:33:21.982Z,62.67
2018-03-06T11:35:49.441Z,66.22
2018-03-06T11:38:16.869Z,61.30
2018-03-06T11:40:44.313Z,62.88
2018-03-06T11:43:11.776Z,62.40
2018-03-06T11:45:39.222Z,58.25
2018-03-06T11:48:06.659Z,63.20
2018-03-06T11:50:34.106Z,65.95
2018-03-06T11:53:01.558Z,59.20
2018-03-06T11:55:28.999Z,61.17
2018-03-06T11:57:56.457Z,67.50
2018-03-06T12:00:23.886Z,60.60
2018-03-06T12:02:52.098Z,61.53
2018-03-06T12:05:19.547Z,62.97
2018-03-06T12:07:47.213Z,61.25
2018-03-06T12:10:14.667Z,61.45
2018-03-06T12:12:42.102Z,57.75
2018-03-06T12:15:09.555Z,60.10
2018-03-06T12:17:37.774Z,55.55
2018-03-06T12:20:05.213Z,59.70
2018-03-06T12:22:33.367Z,62.88
2018-03-06T12:25:01.562Z,56.50
2018-03-06T12:27:28.998Z,57.20
2018-03-06T12:29:56.439Z,52.17
2018-03-06T12:32:24.638Z,51.25
2018-03-06T12:34:52.100Z,50.17
2018-03-06T12:37:19.542Z,55.28
2018-03-06T12:39:47.028Z,56.95
2018-03-06T12:42:14.501Z,53.55
2018-03-06T12:44:41.950Z,52.47
2018-03-06T12:47:09.403Z,53.07
2018-03-06T12:49:36.831Z,54.88
2018-03-06T12:52:04.266Z,51.92
2018-03-06T12:54:32.472Z,54.83
2018-03-06T12:56:59.911Z,49.67
2018-03-06T12:59:27.391Z,51.83
2018-03-06T13:01:54.839Z,47.72
2018-03-06T13:04:22.282Z,50.80
2018-03-06T13:06:49.713Z,52.20
2018-03-06T13:09:17.151Z,52.90
2018-03-06T13:11:44.595Z,50.25
2018-03-06T13:14:12.094Z,57.38
2018-03-06T13:16:40.311Z,49.30
2018-03-06T13:19:07.755Z,49.42
2018-03-06T13:21:35.258Z,50.78
2018-03-06T13:24:02.806Z,51.53
2018-03-06T13:26:30.336Z,49.60
2018-03-06T13:28:57.780Z,46.88
2018-03-06T13:31:25.247Z,46.42
2018-03-06T13:33:52.706Z,49.40
2018-03-06T13:36:20.142Z,48.05
2018-03-06T13:38:47.765Z,48.45
2018-03-06T13:41:15.185Z,49.63
2018-03-06T13:43:42.622Z,53.33
2018-03-06T13:46:10.054Z,48.72
2018-03-06T13:48:38.274Z,52.03
2018-03-06T13:51:05.743Z,50.72
2018-03-06T13:53:33.279Z,55.00
2018-03-06T13:56:00.709Z,48.00
2018-03-06T13:58:28.146Z,48.78
2018-03-06T14:00:56.354Z,45.80
2018-03-06T14:03:23.794Z,51.35
2018-03-06T14:05:52.012Z,48.72
2018-03-06T14:08:19.438Z,54.70
2018-03-06T14:10:46.883Z,48.28
2018-03-06T14:13:14.314Z,52.30
2018-03-06T14:15:41.741Z,52.20
2018-03-06T14:18:09.190Z,49.95
2018-03-06T14:20:36.646Z,44.22
2018-03-06T14:23:04.094Z,49.28
2018-03-06T14:25:31.546Z,51.30
2018-03-06T14:27:58.994Z,51.00
2018-03-06T14:30:26.434Z,49.08
2018-03-06T14:32:54.630Z,50.00
2018-03-06T14:35:22.107Z,52.75
2018-03-06T14:37:49.756Z,48.35
2018-03-06T14:40:17.194Z,55.12
2018-03-06T14:42:44.655Z,50.08
2018-03-06T14:45:12.095Z,46.25
2018-03-06T14:47:39.562Z,50.33
2018-03-06T14:50:06.998Z,47.70
2018-03-06T14:52:35.211Z,54.90
2018-03-06T14:55:02.646Z,55.78
2018-03-06T14:57:30.115Z,54.45
2018-03-06T14:59:57.541Z,57.20
2018-03-06T15:02:25.757Z,55.00
2018-03-06T15:04:53.180Z,51.05
2018-03-06T15:07:21.395Z,53.05
2018-03-06T15:09:49.154Z,60.37
2018-03-06T15:12:16.588Z,52.17
2018-03-06T15:14:44.048Z,53.63
2018-03-06T15:17:11.489Z,54.50
2018-03-06T15:19:38.949Z,55.00
2018-03-06T15:22:06.437Z,49.72
2018-03-06T15:24:33.891Z,51.70
2018-03-06T15:27:01.360Z,53.03
2018-03-06T15:29:28.820Z,50.80
2018-03-06T15:31:56.361Z,53.30
2018-03-06T15:34:23.833Z,50.05
2018-03-06T15:36:52.033Z,52.05
2018-03-06T15:39:19.477Z,47.13
2018-03-06T15:41:46.943Z,42.45
2018-03-06T15:44:14.393Z,41.88
2018-03-06T15:46:41.842Z,44.00
2018-03-06T15:49:09.287Z,40.03
2018-03-06T15:51:36.738Z,41.05
2018-03-06T15:54:04.171Z,46.33
2018-03-06T15:56:31.644Z,43.42
2018-03-06T15:58:59.132Z,43.95
2018-03-06T16:01:26.558Z,43.53
2018-03-06T16:03:54.027Z,39.08
2018-03-06T16:06:21.474Z,45.78
2018-03-06T16:08:48.947Z,44.13
2018-03-06T16:11:16.413Z,42.93
2018-03-06T16:13:43.846Z,42.15
2018-03-06T16:16:11.296Z,46.45
2018-03-06T16:18:38.745Z,43.72
2018-03-06T16:21:06.189Z,43.55
2018-03-06T16:23:33.630Z,44.90
2018-03-06T16:26:01.077Z,50.35
2018-03-06T16:28:29.291Z,48.60
2018-03-06T16:30:56.725Z,53.65
2018-03-06T16:33:24.182Z,51.40
2018-03-06T16:35:52.403Z,51.95
2018-03-06T16:38:19.858Z,50.92
2018-03-06T16:40:48.101Z,49.55
2018-03-06T16:43:16.323Z,54.35
2018-03-06T16:45:43.873Z,51.88
2018-03-06T16:48:11.340Z,50.22
2018-03-06T16:50:38.785Z,48.72
2018-03-06T16:53:06.364Z,53.78
2018-03-06T16:55:33.903Z,52.20
2018-03-06T16:58:01.376Z,54.50
2018-03-06T17:00:28.839Z,50.00
2018-03-06T17:02:56.487Z,50.00
2018-03-06T17:05:23.938Z,49.35
2018-03-06T17:07:51.433Z,53.70
2018-03-06T17:10:19.695Z,54.78
2018-03-06T17:12:47.300Z,52.65
2018-03-06T17:15:14.960Z,61.17
2018-03-06T17:17:42.395Z,54.50
2018-03-06T17:20:09.839Z,55.97
2018-03-06T17:22:37.374Z,57.83
2018-03-06T17:25:04.811Z,57.45
2018-03-06T17:27:32.341Z,57.62
2018-03-06T17:29:59.955Z,59.83
2018-03-06T17:32:27.448Z,58.58
2018-03-06T17:34:54.962Z,54.58
2018-03-06T17:37:22.517Z,59.58
2018-03-06T17:39:49.966Z,59.17
2018-03-06T17:42:17.396Z,61.60
2018-03-06T17:44:44.997Z,61.50
2018-03-06T17:47:12.453Z,64.75
2018-03-06T17:49:39.927Z,61.10
2018-03-06T17:52:07.665Z,58.72
2018-03-06T17:54:35.094Z,59.20
2018-03-06T17:57:02.766Z,59.10
2018-03-06T17:59:30.195Z,61.55
2018-03-06T18:01:57.721Z,64.10
2018-03-06T18:04:25.203Z,63.80
2018-03-06T18:06:52.653Z,61.97
2018-03-06T18:09:20.100Z,61.30
2018-03-06T18:11:48.308Z,61.83
2018-03-06T18:14:15.734Z,58.83
2018-03-06T18:16:43.201Z,61.75
2018-03-06T18:19:11.403Z,56.63
2018-03-06T18:21:38.842Z,57.95
2018-03-06T18:24:06.290Z,55.75
2018-03-06T18:26:33.869Z,56.10
2018-03-06T18:29:01.303Z,56.17
2018-03-06T18:31:28.762Z,51.67
2018-03-06T18:33:56.213Z,58.92
2018-03-06T18:36:23.671Z,51.28
2018-03-06T18:38:51.122Z,53.60
2018-03-06T18:41:19.462Z,55.15
2018-03-06T18:43:46.916Z,52.10
2018-03-06T18:46:14.374Z,50.63
2018-03-06T18:48:41.834Z,50.27
2018-03-06T18:51:13.770Z,51.53
2018-03-06T18:53:41.227Z,52.90
2018-03-06T18:56:08.816Z,56.08
2018-03-06T18:58:36.262Z,52.97
2018-03-06T19:04:17.534Z,54.90
2018-03-06T19:06:47.770Z,56.07
2018-03-06T19:09:15.213Z,52.65
2018-03-06T19:11:42.638Z,53.83
2018-03-06T19:14:10.862Z,56.28
2018-03-06T19:16:38.296Z,54.95
2018-03-06T19:19:05.742Z,51.35
2018-03-06T19:21:33.175Z,53.08
2018-03-06T19:24:01.384Z,54.05
2018-03-06T19:26:28.954Z,52.53
2018-03-06T19:28:56.408Z,54.30
2018-03-06T19:31:24.060Z,55.00
2018-03-06T19:33:51.539Z,55.12
2018-03-06T19:36:19.001Z,51.53
2018-03-06T19:38:46.451Z,52.50
2018-03-06T19:41:13.901Z,55.33
2018-03-06T19:43:41.355Z,56.13
2018-03-06T19:46:08.819Z,54.33
2018-03-06T19:48:36.286Z,59.65
2018-03-06T19:51:03.726Z,62.78
2018-03-06T19:53:31.182Z,56.55
2018-03-06T19:55:58.641Z,56.42
2018-03-06T19:58:26.117Z,54.40
2018-03-06T20:00:53.574Z,57.62
2018-03-06T20:03:21.010Z,55.45
2018-03-06T20:05:48.471Z,58.58
2018-03-06T20:08:15.910Z,57.20
2018-03-06T20:10:43.359Z,57.28
2018-03-06T20:13:10.828Z,58.45
2018-03-06T20:15:38.264Z,55.28
2018-03-06T20:18:05.741Z,59.58
2018-03-06T20:20:33.183Z,58.55
2018-03-06T20:23:00.642Z,56.58
2018-03-06T20:25:33.794Z,55.17
2018-03-06T20:28:01.994Z,57.55
2018-03-06T20:30:35.239Z,54.33
2018-03-06T20:33:08.419Z,59.22
2018-03-06T20:35:35.867Z,56.67
2018-03-06T20:38:03.309Z,59.60
2018-03-06T20:40:32.129Z,61.47
2018-03-06T20:42:59.569Z,59.80
2018-03-06T20:45:27.034Z,56.65
2018-03-06T20:47:54.518Z,61.45
2018-03-06T20:50:21.897Z,58.90
2018-03-06T20:52:55.815Z,58.92
2018-03-06T20:55:23.397Z,57.60
2018-03-06T20:57:50.835Z,62.57
2018-03-06T21:00:18.316Z,60.40
2018-03-06T21:02:45.698Z,60.30
2018-03-06T21:05:13.147Z,64.57
2018-03-06T21:07:40.606Z,64.30
2018-03-06T21:10:08.123Z,63.55
2018-03-06T21:12:35.551Z,64.97
2018-03-06T21:15:03.740Z,66.30
2018-03-06T21:17:31.171Z,63.80
2018-03-06T21:19:58.622Z,64.75
2018-03-06T21:22:26.168Z,66.07
2018-03-06T21:24:53.781Z,70.37
2018-03-06T21:27:21.171Z,75.07
2018-03-06T21:29:48.630Z,72.32
2018-03-06T21:32:16.082Z,74.25
2018-03-06T21:34:43.559Z,69.97
2018-03-06T21:37:11.105Z,70.37
2018-03-06T21:39:38.559Z,74.60
2018-03-06T21:42:06.019Z,74.40
2018-03-06T21:44:33.474Z,72.00
2018-03-06T21:47:00.939Z,78.23
2018-03-06T21:49:28.388Z,76.80
2018-03-06T21:51:55.851Z,72.50
2018-03-06T21:54:23.372Z,75.05
2018-03-06T21:56:50.896Z,81.03
2018-03-06T21:59:18.391Z,81.37
2018-03-06T22:01:45.882Z,77.93
2018-03-06T22:04:13.346Z,77.07
2018-03-06T22:06:40.794Z,82.82
2018-03-06T22:09:08.234Z,81.90
2018-03-06T22:11:35.688Z,84.53
2018-03-06T22:14:03.143Z,80.78
2018-03-06T22:16:30.600Z,83.93
2018-03-06T22:18:58.034Z,84.75
2018-03-06T22:21:25.478Z,82.60
2018-03-06T22:23:53.834Z,85.80
2018-03-06T22:26:22.040Z,84.40
2018-03-06T22:28:49.474Z,87.67
2018-03-06T22:31:17.671Z,85.47
2018-03-06T22:33:45.106Z,86.80
2018-03-06T22:36:13.299Z,92.62
2018-03-06T22:38:40.733Z,86.90
2018-03-06T22:41:08.942Z,83.05
2018-03-06T22:43:36.391Z,85.12
2018-03-06T22:46:03.891Z,92.40
2018-03-06T22:48:31.277Z,89.60
2018-03-06T22:50:58.724Z,89.60
2018-03-06T22:53:26.940Z,94.70
2018-03-06T22:55:54.383Z,92.37
2018-03-06T22:58:21.822Z,92.07
2018-03-06T23:00:49.296Z,90.72
2018-03-06T23:03:16.730Z,86.18
2018-03-06T23:05:44.926Z,90.25
2018-03-06T23:08:12.374Z,90.10
2018-03-06T23:10:39.813Z,93.40
2018-03-06T23:13:08.019Z,95.70
2018-03-06T23:15:35.445Z,86.37
2018-03-06T23:18:03.650Z,95.72
2018-03-06T23:20:31.086Z,89.20
2018-03-06T23:22:58.517Z,96.15
2018-03-06T23:25:26.725Z,96.40
2018-03-06T23:27:54.186Z,99.25
2018-03-06T23:30:21.624Z,96.45
2018-03-06T23:32:49.826Z,95.93
2018-03-06T23:35:17.274Z,93.28
2018-03-06T23:37:44.729Z,94.60
2018-03-06T23:40:12.170Z,99.43
2018-03-06T23:42:40.390Z,99.35
2018-03-06T23:45:07.958Z,98.95
2018-03-06T23:47:35.397Z,99.07
2018-03-06T23:50:02.869Z,103.03
2018-03-06T23:52:30.326Z,97.28
2018-03-06T23:54:57.772Z,100.30
2018-03-06T23:57:25.197Z,100.82
2018-03-06T23:59:52.652Z,102.15
